createdAt,value
2019-05-22T00:01:01.616Z,12.10
2019-05-22T00:03:35.630Z,12.10
2019-05-22T00:06:06.768Z,12.10
2019-05-22T00:08:36.718Z,12.00
2019-05-22T00:11:05.838Z,12.00
2019-05-22T00:13:38.132Z,12.00
2019-05-22T00:16:09.167Z,11.90
2019-05-22T00:18:40.039Z,11.90
2019-05-22T00:21:12.225Z,11.90
2019-05-22T00:23:41.250Z,11.90
2019-05-22T00:26:14.083Z,11.90
2019-05-22T00:28:43.907Z,11.90
2019-05-22T00:31:14.379Z,11.90
2019-05-22T00:33:44.210Z,11.90
2019-05-22T00:36:13.965Z,11.90
2019-05-22T00:38:43.836Z,11.90
2019-05-22T00:41:12.640Z,11.90
2019-05-22T00:43:44.765Z,11.80
2019-05-22T00:46:16.203Z,11.70
2019-05-22T00:48:46.421Z,11.70
2019-05-22T00:51:29.480Z,11.70
2019-05-22T00:54:16.101Z,11.70
2019-05-22T00:56:53.909Z,11.70
2019-05-22T00:59:26.881Z,11.60
2019-05-22T01:01:57.383Z,11.60
2019-05-22T01:04:32.051Z,11.60
2019-05-22T01:07:04.638Z,11.60
2019-05-22T01:09:47.146Z,11.60
2019-05-22T01:12:19.941Z,11.50
2019-05-22T01:14:50.606Z,11.40
2019-05-22T01:17:20.559Z,11.50
2019-05-22T01:19:52.093Z,11.40
2019-05-22T01:22:22.968Z,11.40
2019-05-22T01:24:54.641Z,11.40
2019-05-22T01:27:26.283Z,11.30
2019-05-22T01:29:57.272Z,11.30
2019-05-22T01:32:37.718Z,11.30
2019-05-22T01:35:09.886Z,11.20
2019-05-22T01:37:40.404Z,11.20
2019-05-22T01:40:17.751Z,11.20
2019-05-22T01:42:49.521Z,11.20
2019-05-22T01:45:20.588Z,11.30
2019-05-22T01:48:02.974Z,11.20
2019-05-22T01:50:44.433Z,11.20
2019-05-22T01:53:16.252Z,11.20
2019-05-22T01:55:46.010Z,11.10
2019-05-22T01:58:15.880Z,11.10
2019-05-22T02:00:44.573Z,11.10
2019-05-22T02:03:17.994Z,11.00
2019-05-22T02:05:47.927Z,11.00
2019-05-22T02:08:18.032Z,11.00
2019-05-22T02:10:47.430Z,11.00
2019-05-22T02:13:21.689Z,10.90
2019-05-22T02:15:50.436Z,10.90
2019-05-22T02:18:19.389Z,10.90
2019-05-22T02:20:49.677Z,10.90
2019-05-22T02:23:19.124Z,10.90
2019-05-22T02:25:48.475Z,10.90
2019-05-22T02:28:18.370Z,10.90
2019-05-22T02:30:48.702Z,10.90
2019-05-22T02:33:19.210Z,10.90
2019-05-22T02:35:49.509Z,10.90
2019-05-22T02:38:18.712Z,10.90
2019-05-22T02:40:49.393Z,10.90
2019-05-22T02:43:18.645Z,11.00
2019-05-22T02:45:47.830Z,11.10
2019-05-22T02:48:18.256Z,11.10
2019-05-22T02:50:48.636Z,11.00
2019-05-22T02:53:17.757Z,11.10
2019-05-22T02:55:47.680Z,11.10
2019-05-22T02:58:18.385Z,11.10
2019-05-22T03:00:57.384Z,11.20
2019-05-22T03:03:27.280Z,11.30
2019-05-22T03:05:56.448Z,11.40
2019-05-22T03:08:47.515Z,11.40
2019-05-22T03:11:18.255Z,11.50
2019-05-22T03:14:03.379Z,11.50
2019-05-22T03:16:56.652Z,11.60
2019-05-22T03:19:47.782Z,11.60
2019-05-22T03:22:24.125Z,11.80
2019-05-22T03:24:56.892Z,11.90
2019-05-22T03:27:38.818Z,11.90
2019-05-22T03:30:17.965Z,12.00
2019-05-22T03:32:47.971Z,12.20
2019-05-22T03:35:18.685Z,12.20
2019-05-22T03:37:47.485Z,12.30
2019-05-22T03:40:16.783Z,12.40
2019-05-22T03:42:46.313Z,12.50
2019-05-22T03:45:15.691Z,12.60
2019-05-22T03:47:45.138Z,12.70
2019-05-22T03:50:15.455Z,12.90
2019-05-22T03:52:44.504Z,13.10
2019-05-22T03:55:15.079Z,13.10
2019-05-22T03:57:45.518Z,13.30
2019-05-22T04:00:19.741Z,13.40
2019-05-22T04:02:51.425Z,13.60
2019-05-22T04:05:21.153Z,13.70
2019-05-22T04:07:51.086Z,13.80
2019-05-22T04:10:21.546Z,14.20
2019-05-22T04:12:51.733Z,15.00
2019-05-22T04:15:22.171Z,16.00
2019-05-22T04:17:53.362Z,17.40
2019-05-22T04:20:23.162Z,18.50
2019-05-22T04:22:59.174Z,19.40
2019-05-22T04:25:28.856Z,20.20
2019-05-22T04:27:58.703Z,19.60
2019-05-22T04:30:28.261Z,18.90
2019-05-22T04:32:56.918Z,18.10
2019-05-22T04:35:25.669Z,17.20
2019-05-22T04:37:56.476Z,16.60
2019-05-22T04:40:29.319Z,16.20
2019-05-22T04:43:20.265Z,15.80
2019-05-22T04:45:50.433Z,15.50
2019-05-22T04:48:20.229Z,15.30
2019-05-22T04:50:50.307Z,15.10
2019-05-22T04:53:19.846Z,15.00
2019-05-22T04:55:54.185Z,15.00
2019-05-22T04:58:24.585Z,14.90
2019-05-22T05:00:54.091Z,14.80
2019-05-22T05:03:27.714Z,14.60
2019-05-22T05:05:57.573Z,14.50
2019-05-22T05:08:26.518Z,14.50
2019-05-22T05:10:56.251Z,14.60
2019-05-22T05:13:26.574Z,15.00
2019-05-22T05:15:56.524Z,15.90
2019-05-22T05:18:25.421Z,17.10
2019-05-22T05:20:54.505Z,18.80
2019-05-22T05:23:23.325Z,20.30
2019-05-22T05:25:54.181Z,20.30
2019-05-22T05:28:24.307Z,19.80
2019-05-22T05:30:53.043Z,19.20
2019-05-22T05:33:22.869Z,18.50
2019-05-22T05:35:52.510Z,17.90
2019-05-22T05:38:27.882Z,17.40
2019-05-22T05:40:57.024Z,17.00
2019-05-22T05:43:26.474Z,16.80
2019-05-22T05:45:55.443Z,16.60
2019-05-22T05:48:26.117Z,16.30
2019-05-22T05:51:07.342Z,16.30
2019-05-22T05:53:55.401Z,16.30
2019-05-22T05:56:26.951Z,16.30
2019-05-22T05:58:58.019Z,16.30
2019-05-22T06:01:39.070Z,16.30
2019-05-22T06:04:07.848Z,16.30
2019-05-22T06:06:40.391Z,16.80
2019-05-22T06:09:13.750Z,18.00
2019-05-22T06:11:48.638Z,19.10
2019-05-22T06:14:20.053Z,19.10
2019-05-22T06:16:54.040Z,18.90
2019-05-22T06:19:24.025Z,18.50
2019-05-22T06:21:53.776Z,18.00
2019-05-22T06:24:36.230Z,17.50
2019-05-22T06:27:11.810Z,17.00
2019-05-22T06:39:34.821Z,16.30
2019-05-22T06:46:35.383Z,16.70
2019-05-22T06:49:56.931Z,16.40
2019-05-22T06:52:37.799Z,16.40
2019-05-22T08:01:26.414Z,16.80
2019-05-22T08:11:22.133Z,17.10
2019-05-22T08:17:34.512Z,16.80
2019-05-22T09:29:31.118Z,15.70
2019-05-22T10:52:20.962Z,15.70
2019-05-22T12:11:19.092Z,18.80
2019-05-22T12:19:47.184Z,19.20
2019-05-22T12:23:09.835Z,19.00
2019-05-22T12:58:18.029Z,19.80
2019-05-22T13:59:24.692Z,19.80
2019-05-22T14:05:46.945Z,19.30
2019-05-22T14:35:20.779Z,17.90
2019-05-22T14:44:58.879Z,17.70
2019-05-22T14:47:55.927Z,17.40
2019-05-22T14:54:53.022Z,17.10
2019-05-22T14:57:17.863Z,17.10
2019-05-22T15:06:28.366Z,17.20
2019-05-22T15:10:16.700Z,17.30
2019-05-22T15:31:50.264Z,19.00
2019-05-22T15:37:39.817Z,19.20
2019-05-22T15:40:10.493Z,19.50
2019-05-22T15:42:42.276Z,19.70
2019-05-22T15:45:16.173Z,19.90
2019-05-22T15:47:54.292Z,20.20
2019-05-22T15:50:20.948Z,20.30
2019-05-22T15:52:54.512Z,20.60
2019-05-22T15:55:25.656Z,21.00
2019-05-22T15:57:57.784Z,20.60
2019-05-22T16:00:30.556Z,19.60
2019-05-22T16:03:01.591Z,18.70
2019-05-22T16:05:31.239Z,17.70
2019-05-22T16:08:00.432Z,17.20
2019-05-22T16:10:29.206Z,16.90
2019-05-22T16:13:00.287Z,16.70
2019-05-22T16:15:30.649Z,16.60
2019-05-22T16:18:11.517Z,16.60
2019-05-22T16:20:33.792Z,16.60
2019-05-22T16:23:03.910Z,16.50
2019-05-22T16:25:33.616Z,16.50
2019-05-22T16:28:02.848Z,16.40
2019-05-22T16:30:31.986Z,16.50
2019-05-22T16:33:02.183Z,16.40
2019-05-22T16:35:32.099Z,16.40
2019-05-22T16:38:01.893Z,16.50
2019-05-22T16:40:32.169Z,16.50
2019-05-22T16:43:01.009Z,16.60
2019-05-22T16:45:32.195Z,16.60
2019-05-22T16:48:02.673Z,16.60
2019-05-22T16:50:32.643Z,16.60
2019-05-22T16:53:04.557Z,16.60
2019-05-22T16:55:33.659Z,16.70
2019-05-22T16:58:02.858Z,16.70
2019-05-22T17:00:35.027Z,16.80
2019-05-22T17:03:05.660Z,16.80
2019-05-22T17:05:35.522Z,16.80
2019-05-22T17:08:06.482Z,16.90
2019-05-22T17:10:35.720Z,16.90
2019-05-22T17:13:16.774Z,17.00
2019-05-22T17:15:45.727Z,17.00
2019-05-22T17:18:17.693Z,17.10
2019-05-22T17:20:49.012Z,17.20
2019-05-22T17:23:18.474Z,17.10
2019-05-22T17:25:47.884Z,17.10
2019-05-22T17:28:18.028Z,17.20
2019-05-22T17:30:49.152Z,17.20
2019-05-22T17:33:18.557Z,17.10
2019-05-22T17:35:47.352Z,17.20
2019-05-22T17:38:18.900Z,17.10
2019-05-22T17:40:48.263Z,17.10
2019-05-22T17:43:18.470Z,17.00
2019-05-22T17:45:51.066Z,16.90
2019-05-22T17:48:22.044Z,16.80
2019-05-22T17:50:50.879Z,16.70
2019-05-22T17:53:20.602Z,16.60
2019-05-22T17:55:51.028Z,16.50
2019-05-22T17:58:23.925Z,16.40
2019-05-22T18:00:55.513Z,16.30
2019-05-22T18:03:24.564Z,16.10
2019-05-22T18:05:53.581Z,16.10
2019-05-22T18:08:23.458Z,16.00
2019-05-22T18:10:52.331Z,15.90
2019-05-22T18:13:22.485Z,15.80
2019-05-22T18:15:51.583Z,15.80
2019-05-22T18:18:20.833Z,15.70
2019-05-22T18:20:50.165Z,15.70
2019-05-22T18:23:19.379Z,15.60
2019-05-22T18:25:48.137Z,15.50
2019-05-22T18:28:17.552Z,15.50
2019-05-22T18:30:46.672Z,15.50
2019-05-22T18:33:15.230Z,15.40
2019-05-22T18:35:44.213Z,15.40
2019-05-22T18:38:13.026Z,15.30
2019-05-22T18:40:41.759Z,15.30
2019-05-22T18:43:11.138Z,15.30
2019-05-22T18:45:40.673Z,15.30
2019-05-22T18:48:10.087Z,15.20
2019-05-22T18:50:39.385Z,15.20
2019-05-22T18:53:08.253Z,15.20
2019-05-22T18:55:37.093Z,15.20
2019-05-22T18:58:05.935Z,15.10
2019-05-22T19:00:35.131Z,15.10
2019-05-22T19:03:04.124Z,15.10
2019-05-22T19:05:33.850Z,15.10
2019-05-22T19:08:02.630Z,15.10
2019-05-22T19:10:32.180Z,15.10
2019-05-22T19:13:00.909Z,15.10
2019-05-22T19:15:30.028Z,15.10
2019-05-22T19:17:59.150Z,15.10
2019-05-22T19:20:27.888Z,15.10
2019-05-22T19:23:01.003Z,15.10
2019-05-22T19:25:27.385Z,15.10
2019-05-22T19:27:56.443Z,15.10
2019-05-22T19:30:26.244Z,15.10
2019-05-22T19:32:54.930Z,15.10
2019-05-22T19:35:23.747Z,15.10
2019-05-22T19:37:52.618Z,15.10
2019-05-22T19:40:22.136Z,15.10
2019-05-22T19:42:51.350Z,15.00
2019-05-22T19:45:20.954Z,15.00
2019-05-22T19:47:53.124Z,15.00
2019-05-22T19:50:23.907Z,15.00
2019-05-22T19:52:55.085Z,14.90
2019-05-22T19:55:26.133Z,14.90
2019-05-22T19:57:55.349Z,14.90
2019-05-22T20:00:24.868Z,14.80
2019-05-22T20:02:55.612Z,14.80
2019-05-22T20:05:25.842Z,14.70
2019-05-22T20:07:55.996Z,14.70
2019-05-22T20:10:25.659Z,14.70
2019-05-22T20:12:55.455Z,14.60
2019-05-22T20:15:24.245Z,14.60
2019-05-22T20:17:53.349Z,14.60
2019-05-22T20:20:23.484Z,14.50
2019-05-22T20:22:53.103Z,14.50
2019-05-22T20:25:23.063Z,14.50
2019-05-22T20:27:52.010Z,14.40
2019-05-22T20:30:22.260Z,14.40
2019-05-22T20:32:51.005Z,14.40
2019-05-22T20:35:20.246Z,14.30
2019-05-22T20:37:49.398Z,14.30
2019-05-22T20:40:20.462Z,14.30
2019-05-22T20:42:50.773Z,14.30
2019-05-22T20:45:22.090Z,14.30
2019-05-22T20:47:55.443Z,14.30
2019-05-22T20:50:25.408Z,14.30
2019-05-22T20:52:55.175Z,14.30
2019-05-22T20:55:24.370Z,14.20
2019-05-22T20:57:53.526Z,14.20
2019-05-22T21:00:22.972Z,14.20
2019-05-22T21:02:55.223Z,14.20
2019-05-22T21:05:24.281Z,14.20
2019-05-22T21:07:57.093Z,14.20
2019-05-22T21:10:27.379Z,14.20
2019-05-22T21:12:56.921Z,14.20
2019-05-22T21:15:27.749Z,14.30
2019-05-22T21:17:56.492Z,14.30
2019-05-22T21:20:30.735Z,14.30
2019-05-22T21:23:00.327Z,14.30
2019-05-22T21:25:29.586Z,14.30
2019-05-22T21:27:58.639Z,14.40
2019-05-22T21:30:28.139Z,14.40
2019-05-22T21:32:57.920Z,14.40
2019-05-22T21:35:27.310Z,14.40
2019-05-22T21:37:56.830Z,14.40
2019-05-22T21:40:25.900Z,14.40
2019-05-22T21:43:01.894Z,14.40
2019-05-22T21:45:31.318Z,14.40
2019-05-22T21:48:00.316Z,14.40
2019-05-22T21:50:30.025Z,14.40
2019-05-22T21:53:03.594Z,14.30
2019-05-22T21:55:33.435Z,14.20
2019-05-22T21:58:03.002Z,14.20
2019-05-22T22:00:42.441Z,14.10
2019-05-22T22:03:19.579Z,14.10
2019-05-22T22:05:51.799Z,14.00
2019-05-22T22:08:22.592Z,14.00
2019-05-22T22:10:51.800Z,14.00
2019-05-22T22:13:21.464Z,13.90
2019-05-22T22:15:50.809Z,13.90
2019-05-22T22:18:24.427Z,13.80
2019-05-22T22:20:52.222Z,13.80
2019-05-22T22:23:21.442Z,13.80
2019-05-22T22:25:50.422Z,13.70
2019-05-22T22:28:19.708Z,13.70
2019-05-22T22:30:50.030Z,13.70
2019-05-22T22:33:21.920Z,13.70
2019-05-22T22:35:53.021Z,13.60
2019-05-22T22:38:24.787Z,13.60
2019-05-22T22:40:55.476Z,13.60
2019-05-22T22:43:28.226Z,13.50
2019-05-22T22:46:03.685Z,13.50
2019-05-22T22:48:35.333Z,13.50
2019-05-22T22:51:07.797Z,13.50
2019-05-22T22:53:36.516Z,13.50
2019-05-22T22:56:06.185Z,13.40
2019-05-22T22:58:35.566Z,13.40
2019-05-22T23:01:07.874Z,13.30
2019-05-22T23:03:37.431Z,13.30
2019-05-22T23:06:09.508Z,13.30
2019-05-22T23:08:39.931Z,13.30
2019-05-22T23:11:11.112Z,13.30
2019-05-22T23:13:40.923Z,13.30
2019-05-22T23:16:10.112Z,13.30
2019-05-22T23:18:43.078Z,13.20
2019-05-22T23:21:12.270Z,13.20
2019-05-22T23:23:40.991Z,13.20
2019-05-22T23:26:11.824Z,13.20
2019-05-22T23:28:42.253Z,13.20
2019-05-22T23:31:12.003Z,13.10
2019-05-22T23:33:41.131Z,13.10
2019-05-22T23:36:12.234Z,13.10
2019-05-22T23:38:41.988Z,13.10
2019-05-22T23:41:12.884Z,13.10
2019-05-22T23:43:44.376Z,13.20
2019-05-22T23:46:14.857Z,13.20
2019-05-22T23:48:44.033Z,13.20
2019-05-22T23:51:12.816Z,13.20
2019-05-22T23:53:42.812Z,13.20
2019-05-22T23:56:11.751Z,13.20
2019-05-22T23:58:52.319Z,13.20
